Terminal Aerodrome Forecast
Issued by NWS Tampa Bay Area, FL

Home | Current Version | Previous Version | Text Only | Print | Product List | Glossary On
Versions: 1 2 3 4 5 6 7 8 9 10 11 12 13 14 15 16
000
FTUS42 KTBW 251700 RRA
TAFSRQ
TAF
KSRQ 251744Z 2518/2618 VRB06KT P6SM FEW250
     FM252100 25007KT P6SM SCT250
     FM260100 23009KT P6SM SCT025 BKN050
     FM260900 27015G25KT P6SM VCSH SCT020 OVC050
     FM261500 30020G28KT P6SM FEW020 SCT050=

USA.gov is the U.S. government's official web portal to all federal, state and local government web resources and services.